Time;durP1;ratioP1;P1;durP2;ratioP2;P2;SDS_P1;SDS_P2;PMS_P1;PMS_P2;Temp;Humidity;BMP_temperature;BMP_pressure;BME280_temperature;BME280_humidity;BME280_pressure;Samples;Min_cycle;Max_cycle;Signal;HPM_P1;HPM_P2
2022/11/05 05:00:14;;;;;;;24.80;16.80;;;9.50;99.90;;;;;;6119790;23;20378;31
2022/11/05 05:02:43;;;;;;;32.23;18.67;;;9.50;99.90;;;;;;4966409;28;20478;-71
2022/11/05 05:05:09;;;;;;;29.50;18.83;;;9.50;99.90;;;;;;4967239;28;20506;-71
2022/11/05 05:07:36;;;;;;;30.50;18.87;;;9.50;99.90;;;;;;4968929;28;20460;-71
2022/11/05 05:10:05;;;;;;;34.67;18.17;;;9.60;99.90;;;;;;4962415;28;20461;-71
2022/11/05 05:12:32;;;;;;;29.03;19.20;;;9.60;99.90;;;;;;4964457;28;20476;-71
2022/11/05 05:14:58;;;;;;;27.00;18.30;;;9.60;99.90;;;;;;4968819;28;20475;-71
2022/11/05 05:17:25;;;;;;;31.00;18.93;;;9.60;99.90;;;;;;4969298;28;20464;-71
2022/11/05 05:22:38;;;;;;;26.77;18.20;;;9.70;99.90;;;;;;4968960;28;20556;-71
2022/11/05 05:25:05;;;;;;;28.10;19.03;;;9.70;99.90;;;;;;4968185;28;20465;-75
2022/11/05 05:27:32;;;;;;;29.57;17.20;;;9.70;99.90;;;;;;4968717;28;20465;-71
2022/11/05 05:30:00;;;;;;;31.67;19.60;;;9.70;99.90;;;;;;4968879;28;20452;-73
2022/11/05 05:32:27;;;;;;;27.73;17.53;;;9.70;99.90;;;;;;4968183;28;21063;-71
2022/11/05 05:34:55;;;;;;;35.43;19.00;;;9.70;99.90;;;;;;4968220;28;20464;-72
2022/11/05 05:37:22;;;;;;;31.03;19.10;;;9.60;99.90;;;;;;4968448;28;20827;-72
2022/11/05 05:39:49;;;;;;;28.97;18.73;;;9.70;99.90;;;;;;4968628;28;20838;-74
2022/11/05 05:42:15;;;;;;;30.03;19.87;;;9.60;99.90;;;;;;4968635;28;20488;-73
2022/11/05 05:44:42;;;;;;;31.80;19.90;;;9.70;99.90;;;;;;4967746;28;20461;-72
2022/11/05 05:47:09;;;;;;;31.90;19.83;;;9.70;99.90;;;;;;4968471;28;20489;-71
2022/11/05 05:49:36;;;;;;;26.20;17.80;;;9.70;99.90;;;;;;4968782;28;20460;-73
2022/11/05 05:52:04;;;;;;;33.50;19.97;;;9.70;99.90;;;;;;4968157;28;20499;-72
2022/11/05 05:54:31;;;;;;;30.27;19.33;;;9.70;99.90;;;;;;4967812;28;21296;-71
2022/11/05 05:56:58;;;;;;;32.43;19.63;;;9.70;99.90;;;;;;4968301;28;21064;-72
2022/11/05 05:59:25;;;;;;;30.10;18.50;;;9.80;99.90;;;;;;4968390;28;20839;-71
2022/11/05 06:01:51;;;;;;;30.90;18.67;;;9.80;99.90;;;;;;4968015;28;20495;-73
2022/11/05 06:04:19;;;;;;;33.80;19.87;;;9.80;99.90;;;;;;4967334;28;20949;-73
2022/11/05 06:06:47;;;;;;;30.50;18.67;;;9.70;99.90;;;;;;4968517;28;20491;-71
2022/11/05 06:09:15;;;;;;;27.70;18.80;;;9.80;99.90;;;;;;4968474;28;20464;-71
2022/11/05 06:11:42;;;;;;;27.67;17.60;;;9.80;99.90;;;;;;4968020;28;20476;-71
2022/11/05 06:14:11;;;;;;;31.40;19.80;;;9.80;99.90;;;;;;4967639;28;20468;-73
2022/11/05 06:16:37;;;;;;;31.13;18.70;;;9.80;99.90;;;;;;4967971;28;20469;-71
2022/11/05 06:19:05;;;;;;;31.50;18.37;;;9.90;99.90;;;;;;4968312;28;20464;-71
2022/11/05 06:21:31;;;;;;;29.23;17.73;;;9.90;99.90;;;;;;4967846;28;20484;-74
2022/11/05 06:24:00;;;;;;;32.37;19.40;;;9.80;99.90;;;;;;4966582;28;20465;-73
2022/11/05 06:26:28;;;;;;;30.67;18.50;;;9.90;99.90;;;;;;4967523;28;20492;-76
2022/11/05 06:28:55;;;;;;;34.57;19.40;;;9.90;99.90;;;;;;4968065;28;20475;-74
2022/11/05 06:31:22;;;;;;;29.43;19.60;;;9.80;99.90;;;;;;4967546;28;20481;-74
2022/11/05 06:33:48;;;;;;;37.87;21.77;;;9.80;99.90;;;;;;4968088;28;20475;-73
2022/11/05 06:36:17;;;;;;;32.83;19.20;;;9.90;99.90;;;;;;4967411;28;20456;-75
2022/11/05 06:38:44;;;;;;;30.57;18.37;;;9.80;99.90;;;;;;4969072;28;20459;-73
2022/11/05 06:41:11;;;;;;;31.87;17.87;;;9.80;99.90;;;;;;4968523;28;20946;-73
2022/11/05 06:43:40;;;;;;;28.50;18.47;;;9.80;99.90;;;;;;4968180;28;20465;-73
2022/11/05 06:46:07;;;;;;;37.87;20.27;;;9.80;99.90;;;;;;4966891;28;20499;-74
2022/11/05 06:48:34;;;;;;;30.80;17.47;;;9.70;99.90;;;;;;4967724;28;20471;-74
2022/11/05 06:51:01;;;;;;;38.40;19.60;;;9.80;99.90;;;;;;4967751;28;20480;-73
2022/11/05 06:53:28;;;;;;;27.77;17.80;;;9.80;99.90;;;;;;4967725;28;20460;-73
2022/11/05 06:55:54;;;;;;;35.27;18.67;;;9.80;99.90;;;;;;4967083;28;20457;-73
2022/11/05 06:58:21;;;;;;;32.97;18.17;;;9.90;99.90;;;;;;4967693;28;20464;-73
2022/11/05 07:00:50;;;;;;;30.63;18.30;;;9.80;99.90;;;;;;4967148;28;20488;-74
2022/11/05 07:03:16;;;;;;;33.80;17.77;;;9.80;99.90;;;;;;4967348;28;20817;-74
2022/11/05 07:05:47;;;;;;;30.10;17.70;;;9.80;99.90;;;;;;4966178;28;20501;-75
2022/11/05 07:08:14;;;;;;;31.27;17.77;;;9.80;99.90;;;;;;4966773;28;20464;-73
2022/11/05 07:10:40;;;;;;;36.43;17.97;;;9.80;99.90;;;;;;4967042;28;20488;-73
2022/11/05 07:13:07;;;;;;;33.97;19.10;;;9.70;99.90;;;;;;4967052;28;20468;-74
2022/11/05 07:15:34;;;;;;;32.80;18.23;;;9.70;99.90;;;;;;4966366;28;20464;-74
2022/11/05 07:18:02;;;;;;;30.97;18.40;;;9.80;99.90;;;;;;4967302;28;20467;-73
2022/11/05 07:20:29;;;;;;;33.23;17.33;;;9.80;99.90;;;;;;4966824;28;20465;-74
2022/11/05 07:23:02;;;;;;;27.57;18.57;;;9.80;99.90;;;;;;4967448;28;20469;-73
2022/11/05 07:25:31;;;;;;;28.20;18.07;;;9.80;99.90;;;;;;4966076;28;20455;-73
2022/11/05 07:27:58;;;;;;;28.27;17.77;;;9.80;99.90;;;;;;4967088;28;20488;-73
2022/11/05 07:30:25;;;;;;;29.20;16.87;;;9.80;99.90;;;;;;4967039;28;20471;-73
2022/11/05 07:32:52;;;;;;;27.33;17.10;;;9.80;99.90;;;;;;4966912;28;20457;-73
2022/11/05 07:35:20;;;;;;;29.80;18.03;;;9.80;99.90;;;;;;4967503;28;21082;-73
2022/11/05 07:37:48;;;;;;;25.23;16.43;;;9.90;99.90;;;;;;4970454;28;20449;-73
2022/11/05 07:40:18;;;;;;;27.83;17.57;;;9.90;99.90;;;;;;4970435;28;20455;-73
2022/11/05 07:42:45;;;;;;;31.53;19.23;;;9.90;99.90;;;;;;4970556;28;20857;-72
2022/11/05 07:45:13;;;;;;;26.73;16.80;;;9.90;99.90;;;;;;4969737;28;20456;-73
2022/11/05 07:47:45;;;;;;;26.33;17.50;;;9.90;99.90;;;;;;4970172;28;20502;-75
2022/11/05 07:50:11;;;;;;;27.20;16.20;;;9.90;99.90;;;;;;4970517;28;20467;-72
2022/11/05 07:52:40;;;;;;;28.03;15.63;;;10.00;99.90;;;;;;4970909;28;21270;-76
2022/11/05 07:55:08;;;;;;;25.47;16.10;;;9.90;99.90;;;;;;4970264;28;20456;-76
2022/11/05 07:57:40;;;;;;;24.43;15.80;;;9.90;99.90;;;;;;4971471;28;20826;-73
2022/11/05 08:00:09;;;;;;;29.73;16.60;;;9.90;99.90;;;;;;4971079;28;20871;-75
2022/11/05 08:02:35;;;;;;;24.53;15.20;;;10.00;99.90;;;;;;4970705;28;20498;-75
2022/11/05 08:05:02;;;;;;;23.80;15.20;;;9.90;99.90;;;;;;4970340;28;20460;-74
2022/11/05 08:07:29;;;;;;;25.73;16.07;;;9.90;99.90;;;;;;4970839;28;20488;-72
2022/11/05 08:09:57;;;;;;;24.07;15.47;;;9.90;99.90;;;;;;4970725;28;20818;-72
2022/11/05 08:12:24;;;;;;;24.97;16.40;;;10.00;99.90;;;;;;4970920;28;20480;-72
2022/11/05 08:14:51;;;;;;;25.50;16.63;;;9.90;99.90;;;;;;4970167;28;20491;-72
2022/11/05 08:17:18;;;;;;;23.50;15.30;;;9.90;99.90;;;;;;4970170;28;20945;-74
2022/11/05 08:19:44;;;;;;;25.37;16.80;;;9.90;99.90;;;;;;4970365;28;20467;-73
2022/11/05 08:22:11;;;;;;;29.43;15.90;;;9.90;99.90;;;;;;4970614;28;20482;-72
2022/11/05 08:24:38;;;;;;;30.43;16.67;;;10.00;99.90;;;;;;4970032;28;20471;-72
2022/11/05 08:27:06;;;;;;;26.45;17.75;;;10.00;99.90;;;;;;4969611;28;20454;-77
2022/11/05 08:29:35;;;;;;;28.87;18.20;;;10.10;99.90;;;;;;4970167;28;20227;-73
2022/11/05 08:32:02;;;;;;;26.70;17.90;;;10.20;99.90;;;;;;4970170;28;20485;-75
2022/11/05 08:34:28;;;;;;;32.70;19.27;;;10.30;99.90;;;;;;4969658;28;20456;-73
2022/11/05 08:36:55;;;;;;;29.23;17.37;;;10.30;99.90;;;;;;4969457;28;20456;-65
2022/11/05 08:39:22;;;;;;;29.87;17.40;;;10.20;99.90;;;;;;4969242;28;20457;-66
2022/11/05 08:41:50;;;;;;;27.47;17.80;;;10.10;99.90;;;;;;4969157;28;20491;-66
2022/11/05 08:44:18;;;;;;;26.20;17.80;;;10.20;99.90;;;;;;4970021;28;20500;-74
2022/11/05 08:46:45;;;;;;;25.00;15.87;;;10.20;99.90;;;;;;4970284;28;20500;-73
2022/11/05 08:49:11;;;;;;;25.70;16.20;;;10.10;99.90;;;;;;4971335;28;20460;-73
2022/11/05 08:51:38;;;;;;;25.57;15.10;;;10.10;99.90;;;;;;4968866;28;20484;-76
2022/11/05 08:54:10;;;;;;;28.93;16.30;;;10.10;99.90;;;;;;4968054;28;20522;-76
2022/11/05 08:56:37;;;;;;;24.47;15.67;;;10.20;99.90;;;;;;4968797;28;20445;-76
2022/11/05 08:59:04;;;;;;;31.60;16.87;;;10.10;99.90;;;;;;4968570;28;20471;-76
2022/11/05 09:01:32;;;;;;;24.97;14.73;;;10.10;99.90;;;;;;4967989;28;21025;-76
2022/11/05 09:03:59;;;;;;;23.10;13.80;;;10.10;99.90;;;;;;4968263;28;20949;-76
2022/11/05 09:06:26;;;;;;;29.67;14.47;;;10.10;99.90;;;;;;4968758;28;20496;-77
2022/11/05 09:08:52;;;;;;;24.20;15.43;;;10.10;99.90;;;;;;4968783;28;20461;-76
2022/11/05 09:11:19;;;;;;;25.77;15.63;;;10.10;99.90;;;;;;4968342;28;20487;-74
2022/11/05 09:13:46;;;;;;;21.97;13.87;;;10.10;99.90;;;;;;4968474;28;20949;-76
2022/11/05 09:16:19;;;;;;;27.23;14.60;;;10.10;99.90;;;;;;4967409;28;20464;-76
2022/11/05 09:18:47;;;;;;;23.53;15.07;;;10.10;99.90;;;;;;4968635;28;20464;-77
2022/11/05 09:21:14;;;;;;;22.33;14.87;;;10.10;99.90;;;;;;4968270;28;20484;-76
2022/11/05 09:23:40;;;;;;;24.87;15.50;;;10.20;99.90;;;;;;4968572;28;20460;-76
2022/11/05 09:26:08;;;;;;;25.07;14.90;;;10.20;99.90;;;;;;4967213;28;20457;-74
2022/11/05 09:28:35;;;;;;;21.10;13.50;;;10.20;99.90;;;;;;4968220;28;20459;-75
2022/11/05 09:31:06;;;;;;;29.17;16.90;;;10.20;99.90;;;;;;4968130;28;20477;-75
2022/11/05 09:33:33;;;;;;;25.30;16.33;;;10.10;99.90;;;;;;4968103;28;20472;-77
2022/11/05 09:36:01;;;;;;;30.23;18.17;;;10.10;99.90;;;;;;4967037;28;20953;-76
2022/11/05 09:38:29;;;;;;;28.60;15.83;;;10.10;99.90;;;;;;4968152;28;20459;-76
2022/11/05 09:40:59;;;;;;;25.90;16.60;;;10.10;99.90;;;;;;4967668;28;20566;-74
2022/11/05 09:43:30;;;;;;;28.27;16.00;;;10.00;99.90;;;;;;4968347;28;20445;-75
2022/11/05 09:45:59;;;;;;;30.60;16.20;;;10.00;99.90;;;;;;4967490;28;20449;-76
2022/11/05 09:48:30;;;;;;;24.43;15.40;;;9.90;99.90;;;;;;4968135;28;20492;-75
2022/11/05 09:50:58;;;;;;;23.10;14.60;;;9.90;99.90;;;;;;4968238;28;20477;-76
2022/11/05 09:53:26;;;;;;;24.27;13.40;;;9.90;99.90;;;;;;4967476;28;20487;-76
2022/11/05 09:55:56;;;;;;;21.47;14.57;;;9.90;99.90;;;;;;4965309;28;20456;-75
2022/11/05 09:58:33;;;;;;;22.53;14.07;;;10.00;99.90;;;;;;4967766;28;20471;-75
2022/11/05 10:01:00;;;;;;;22.37;14.70;;;10.00;99.90;;;;;;4967612;28;20488;-75
2022/11/05 10:03:29;;;;;;;27.53;14.43;;;10.10;99.90;;;;;;4967580;28;20821;-75
2022/11/05 10:06:07;;;;;;;20.43;13.37;;;10.00;99.90;;;;;;4966384;28;20474;-74
2022/11/05 10:08:41;;;;;;;18.47;13.43;;;10.10;99.90;;;;;;4967265;28;20443;-68
2022/11/05 10:11:14;;;;;;;20.20;13.67;;;10.10;99.90;;;;;;4967443;28;20482;-68
2022/11/05 10:13:44;;;;;;;21.60;13.30;;;10.10;99.90;;;;;;4967562;28;20537;-74
2022/11/05 10:16:21;;;;;;;18.57;13.00;;;10.10;99.90;;;;;;4966566;28;20452;-76
2022/11/05 10:18:53;;;;;;;19.23;13.03;;;10.10;99.90;;;;;;4967509;28;20460;-73
2022/11/05 10:21:20;;;;;;;19.93;13.07;;;10.10;99.90;;;;;;4967001;28;20472;-76
2022/11/05 10:23:48;;;;;;;19.00;12.97;;;10.10;99.90;;;;;;4967414;28;20456;-73
2022/11/05 10:26:20;;;;;;;19.67;13.93;;;10.10;99.90;;;;;;4966476;28;20452;-75
2022/11/05 10:28:47;;;;;;;16.60;11.93;;;10.10;99.90;;;;;;4966838;28;20965;-75
2022/11/05 10:31:19;;;;;;;16.03;11.70;;;10.10;99.90;;;;;;4967117;28;20485;-75
2022/11/05 10:33:48;;;;;;;14.17;10.50;;;10.10;99.90;;;;;;4967132;28;20536;-75
2022/11/05 10:36:20;;;;;;;14.83;10.87;;;10.00;99.90;;;;;;4966693;28;20815;-74
2022/11/05 10:38:48;;;;;;;12.37;9.23;;;10.00;99.90;;;;;;4966960;28;20468;-75
2022/11/05 10:41:31;;;;;;;11.57;9.07;;;9.90;99.90;;;;;;4967031;28;20480;-75
2022/11/05 10:44:08;;;;;;;13.13;9.77;;;9.90;99.90;;;;;;4966470;28;21317;-74
2022/11/05 10:46:41;;;;;;;14.03;9.93;;;9.90;99.90;;;;;;4967011;28;20443;-76
2022/11/05 10:49:22;;;;;;;12.77;9.37;;;9.90;99.90;;;;;;4967240;28;20451;-76
2022/11/05 10:51:55;;;;;;;16.30;9.33;;;9.90;99.90;;;;;;4966992;28;20491;-76
2022/11/05 10:54:30;;;;;;;13.97;10.57;;;9.90;99.90;;;;;;4965964;28;20464;-76
2022/11/05 10:56:56;;;;;;;17.00;9.70;;;9.90;99.90;;;;;;4966714;28;20908;-75
2022/11/05 10:59:25;;;;;;;12.67;8.77;;;9.90;99.90;;;;;;4966814;28;20459;-75
2022/11/05 11:02:01;;;;;;;13.40;9.37;;;9.90;99.90;;;;;;4966452;28;20510;-76
2022/11/05 11:04:30;;;;;;;12.40;9.40;;;9.90;99.90;;;;;;4966286;28;20618;-76
2022/11/05 11:06:59;;;;;;;14.90;9.87;;;9.90;99.90;;;;;;4966456;28;20488;-74
2022/11/05 11:09:30;;;;;;;19.73;11.57;;;10.00;99.90;;;;;;4966434;28;20464;-76
2022/11/05 11:12:01;;;;;;;19.40;13.13;;;9.90;99.90;;;;;;4970637;28;20992;-75
2022/11/05 11:14:28;;;;;;;14.07;10.67;;;10.00;99.90;;;;;;4969891;28;20456;-76
2022/11/05 11:17:14;;;;;;;16.27;10.20;;;10.00;99.90;;;;;;4971004;28;20830;-73
2022/11/05 11:19:41;;;;;;;16.33;10.57;;;10.00;99.90;;;;;;4970585;28;20455;-74
2022/11/05 11:22:20;;;;;;;16.13;10.67;;;10.00;99.90;;;;;;4970600;28;20654;-74
2022/11/05 11:24:52;;;;;;;15.10;9.43;;;10.00;99.90;;;;;;4969941;28;20455;-73
2022/11/05 11:27:23;;;;;;;17.00;10.40;;;10.00;99.90;;;;;;4970539;28;20516;-74
2022/11/05 11:29:56;;;;;;;15.30;9.50;;;10.00;99.90;;;;;;4970671;28;20449;-74
2022/11/05 11:32:27;;;;;;;14.73;9.83;;;10.10;99.90;;;;;;4970332;28;20534;-73
2022/11/05 11:34:56;;;;;;;15.30;10.27;;;10.20;99.90;;;;;;4969750;28;20460;-73
2022/11/05 11:37:26;;;;;;;19.70;11.40;;;10.20;99.90;;;;;;4970373;28;20555;-73
2022/11/05 11:39:57;;;;;;;18.67;11.73;;;10.10;99.90;;;;;;4970133;28;20448;-73
2022/11/05 11:42:29;;;;;;;14.80;10.07;;;10.10;99.90;;;;;;4970132;28;20832;-73
2022/11/05 11:44:58;;;;;;;15.53;10.10;;;10.10;99.90;;;;;;4969766;28;20463;-73
2022/11/05 11:47:27;;;;;;;19.73;11.40;;;10.10;99.90;;;;;;4969957;28;20594;-73
2022/11/05 11:49:56;;;;;;;17.63;11.27;;;10.10;99.90;;;;;;4970250;28;20488;-74
2022/11/05 11:52:29;;;;;;;19.83;10.97;;;10.20;99.90;;;;;;4969665;28;20480;-73
2022/11/05 11:55:19;;;;;;;18.17;11.43;;;10.30;99.90;;;;;;4967914;28;20460;-73
2022/11/05 11:57:48;;;;;;;17.90;10.77;;;10.20;99.90;;;;;;4970100;28;20441;-72
2022/11/05 12:00:16;;;;;;;15.17;10.37;;;10.20;99.90;;;;;;4969792;28;20456;-72
2022/11/05 12:03:14;;;;;;;16.43;11.17;;;10.20;99.90;;;;;;4969943;28;20459;-73
2022/11/05 12:05:47;;;;;;;17.60;10.50;;;10.20;99.90;;;;;;4969464;28;20456;-74
2022/11/05 12:08:33;;;;;;;18.37;11.73;;;10.20;99.90;;;;;;4970026;28;20844;-73
2022/11/05 12:11:05;;;;;;;19.47;11.23;;;10.20;99.90;;;;;;4969867;28;20480;-74
2022/11/05 12:13:58;;;;;;;19.63;11.33;;;10.20;99.90;;;;;;4969649;28;20463;-73
2022/11/05 12:16:35;;;;;;;18.37;11.00;;;10.10;99.90;;;;;;4969795;28;20441;-73
2022/11/05 12:19:11;;;;;;;14.30;9.90;;;10.20;99.90;;;;;;4969596;28;20458;-74
2022/11/05 12:21:50;;;;;;;15.57;10.00;;;10.30;99.90;;;;;;4969075;28;21526;-73
2022/11/05 12:24:41;;;;;;;17.77;12.50;;;10.40;99.90;;;;;;4968387;28;20441;-73
2022/11/05 12:27:21;;;;;;;18.20;11.77;;;10.40;99.90;;;;;;4969311;28;20496;-73
2022/11/05 12:29:55;;;;;;;23.40;12.60;;;10.50;99.90;;;;;;4969544;28;20449;-74
2022/11/05 12:32:46;;;;;;;17.50;12.90;;;10.60;99.90;;;;;;4969401;28;20487;-73
2022/11/05 12:35:27;;;;;;;19.57;11.23;;;10.60;99.90;;;;;;4968427;28;20453;-75
2022/11/05 12:38:05;;;;;;;23.47;13.33;;;10.60;99.90;;;;;;4969024;28;20881;-74
2022/11/05 12:40:46;;;;;;;21.80;13.00;;;10.70;99.90;;;;;;4968861;28;20447;-75
2022/11/05 12:43:25;;;;;;;21.07;12.47;;;10.70;99.90;;;;;;4969467;28;20444;-75
2022/11/05 12:45:59;;;;;;;25.53;13.47;;;10.80;99.90;;;;;;4968332;28;20991;-75
2022/11/05 12:48:46;;;;;;;22.47;12.37;;;10.80;99.90;;;;;;4968767;28;20488;-73
2022/11/05 12:51:26;;;;;;;22.13;12.67;;;10.70;99.90;;;;;;4968978;28;21333;-74
2022/11/05 12:54:03;;;;;;;22.20;13.47;;;10.70;99.90;;;;;;4968562;28;20449;-73
2022/11/05 12:56:35;;;;;;;17.30;10.40;;;10.70;99.90;;;;;;4967306;28;20461;-74
2022/11/05 12:59:17;;;;;;;11.77;9.37;;;10.60;99.90;;;;;;4968603;28;20460;-75
2022/11/05 13:01:48;;;;;;;18.17;11.30;;;10.70;99.90;;;;;;4968304;28;20492;-72
2022/11/05 13:04:25;;;;;;;18.03;10.47;;;10.70;99.90;;;;;;4968527;28;20451;-74
2022/11/05 13:06:54;;;;;;;21.60;10.13;;;10.70;99.90;;;;;;4968268;28;20449;-74
2022/11/05 13:09:29;;;;;;;14.80;9.77;;;10.70;99.90;;;;;;4968046;28;20492;-73
2022/11/05 13:11:59;;;;;;;17.03;10.43;;;10.60;99.90;;;;;;4972013;28;20500;-72
2022/11/05 13:14:33;;;;;;;18.30;11.07;;;10.60;99.90;;;;;;4976423;28;20470;-73
2022/11/05 13:17:05;;;;;;;14.00;9.30;;;10.60;99.90;;;;;;4968400;28;20514;-73
2022/11/05 13:19:36;;;;;;;16.50;10.80;;;10.50;99.90;;;;;;4968427;28;20448;-73
2022/11/05 13:22:11;;;;;;;17.83;11.60;;;10.50;99.90;;;;;;4968222;28;20481;-73
2022/11/05 13:24:42;;;;;;;24.10;13.77;;;10.50;99.90;;;;;;4967679;28;20482;-73
2022/11/05 13:27:40;;;;;;;18.40;12.20;;;10.50;99.90;;;;;;4968589;28;20460;-74
2022/11/05 13:30:14;;;;;;;17.77;10.83;;;10.60;99.90;;;;;;4968359;28;20445;-74
2022/11/05 13:32:45;;;;;;;16.23;10.77;;;10.70;99.90;;;;;;4970522;28;20464;-73
2022/11/05 13:35:17;;;;;;;18.10;11.13;;;10.70;99.90;;;;;;4975044;28;20550;-74
2022/11/05 13:40:44;;;;;;;19.33;10.20;;;10.80;99.90;;;;;;4968005;28;20865;-71
2022/11/05 13:43:39;;;;;;;17.90;11.03;;;10.80;99.90;;;;;;4968071;28;20448;-72
2022/11/05 13:46:34;;;;;;;19.53;11.00;;;10.80;99.90;;;;;;4964672;28;20457;-71
2022/11/05 13:49:32;;;;;;;23.27;11.07;;;10.70;99.90;;;;;;4968088;28;20496;-75
2022/11/05 13:52:10;;;;;;;24.33;11.20;;;10.70;99.90;;;;;;4968425;28;20489;-73
2022/11/05 13:54:59;;;;;;;23.43;10.57;;;10.70;99.90;;;;;;4967328;28;20456;-74
2022/11/05 13:57:47;;;;;;;21.47;10.83;;;10.70;99.90;;;;;;4968628;28;20447;-73
2022/11/05 14:00:19;;;;;;;23.20;11.97;;;10.80;99.90;;;;;;4968076;28;20449;-73
2022/11/05 14:02:50;;;;;;;20.80;11.30;;;10.80;99.90;;;;;;4967649;28;20456;-74
2022/11/05 14:05:28;;;;;;;20.23;11.30;;;10.80;99.90;;;;;;4966805;28;20452;-73
2022/11/05 14:07:56;;;;;;;17.90;11.73;;;10.80;99.90;;;;;;4967506;28;20487;-73
2022/11/05 14:10:33;;;;;;;23.10;12.27;;;10.90;99.90;;;;;;4967413;28;20465;-73
2022/11/05 14:13:06;;;;;;;16.50;11.30;;;10.90;99.90;;;;;;4967613;28;20471;-73
2022/11/05 14:15:33;;;;;;;17.90;11.10;;;10.80;99.90;;;;;;4966739;28;20456;-73
2022/11/05 14:18:04;;;;;;;21.50;12.47;;;10.80;99.90;;;;;;4967160;28;20488;-73
2022/11/05 14:20:57;;;;;;;21.27;11.27;;;10.90;99.90;;;;;;4967122;28;21130;-73
2022/11/05 14:23:37;;;;;;;21.40;11.23;;;10.90;99.90;;;;;;4967129;28;20469;-73
2022/11/05 14:26:21;;;;;;;19.87;11.07;;;10.90;99.90;;;;;;4966734;28;20449;-72
2022/11/05 14:29:22;;;;;;;21.17;12.63;;;10.90;99.90;;;;;;4967233;28;20495;-73
2022/11/05 14:32:03;;;;;;;21.17;12.20;;;10.90;99.90;;;;;;4945276;28;20561;-74
2022/11/05 14:35:02;;;;;;;20.00;11.57;;;11.00;99.90;;;;;;4963889;28;21196;-74
2022/11/05 14:37:32;;;;;;;21.17;12.93;;;11.00;99.90;;;;;;4955114;28;20477;-73
2022/11/05 14:40:18;;;;;;;19.73;12.80;;;11.00;99.90;;;;;;4967326;28;21229;-73
2022/11/05 14:42:51;;;;;;;20.50;12.60;;;11.00;99.90;;;;;;4966959;28;20468;-74
2022/11/05 14:45:30;;;;;;;18.93;11.93;;;11.00;99.90;;;;;;4964947;28;20491;-73
2022/11/05 14:47:59;;;;;;;18.70;11.47;;;11.00;99.90;;;;;;4967095;28;20495;-73
2022/11/05 14:50:36;;;;;;;17.37;11.60;;;11.00;99.90;;;;;;4966817;28;20475;-73
2022/11/05 14:53:22;;;;;;;16.40;10.23;;;11.00;99.90;;;;;;4967685;28;20448;-73
2022/11/05 14:55:58;;;;;;;18.17;12.00;;;11.00;99.90;;;;;;4966280;28;20492;-74
2022/11/05 14:58:37;;;;;;;21.57;11.67;;;11.10;99.90;;;;;;4966962;28;20436;-73
2022/11/05 15:01:07;;;;;;;23.63;12.73;;;11.10;99.90;;;;;;4966546;28;20492;-74
2022/11/05 15:03:59;;;;;;;19.43;11.23;;;11.00;99.90;;;;;;4966568;28;20467;-74
2022/11/05 15:06:31;;;;;;;27.27;12.83;;;11.00;99.90;;;;;;4956701;28;20961;-74
2022/11/05 15:09:26;;;;;;;21.07;12.60;;;11.10;99.90;;;;;;4947833;28;20492;-73
2022/11/05 15:12:13;;;;;;;23.63;12.37;;;11.00;99.90;;;;;;4947296;28;20492;-75
2022/11/05 15:14:48;;;;;;;18.40;11.33;;;11.00;99.90;;;;;;4946734;28;20450;-74
2022/11/05 15:17:21;;;;;;;23.60;12.10;;;11.00;99.90;;;;;;4954793;28;20560;-73
2022/11/05 15:19:50;;;;;;;21.40;11.73;;;10.90;99.90;;;;;;4947495;28;20533;-69
2022/11/05 15:22:30;;;;;;;17.83;11.80;;;10.90;99.90;;;;;;4947077;28;20481;-69
2022/11/05 15:24:57;;;;;;;23.30;13.30;;;10.90;99.90;;;;;;4946392;28;20543;-68
2022/11/05 15:27:40;;;;;;;22.20;13.03;;;10.90;99.90;;;;;;4947420;28;20488;-68
2022/11/05 15:30:19;;;;;;;20.77;14.20;;;10.80;99.90;;;;;;4947314;28;20461;-69
2022/11/05 15:32:47;;;;;;;23.70;13.00;;;10.90;99.90;;;;;;4947873;28;20461;-74
2022/11/05 15:35:26;;;;;;;19.87;12.60;;;10.80;99.90;;;;;;4947377;28;20466;-73
2022/11/05 15:37:56;;;;;;;20.23;12.97;;;10.90;99.90;;;;;;4947027;28;21256;-73
2022/11/05 15:40:26;;;;;;;15.50;11.00;;;10.80;99.90;;;;;;4947246;28;20466;-74
2022/11/05 15:43:18;;;;;;;20.80;11.80;;;10.80;99.90;;;;;;4947168;28;20473;-73
2022/11/05 15:46:01;;;;;;;19.57;12.33;;;10.80;99.90;;;;;;4946444;28;20469;-75
2022/11/05 15:48:28;;;;;;;17.70;12.67;;;10.80;99.90;;;;;;4947204;28;21082;-73
2022/11/05 15:50:55;;;;;;;20.90;11.37;;;10.80;99.90;;;;;;4946877;28;20496;-72
2022/11/05 15:53:36;;;;;;;17.30;9.70;;;10.80;99.90;;;;;;4948622;28;20456;-72
2022/11/05 15:56:09;;;;;;;14.80;9.97;;;10.70;99.90;;;;;;4948104;28;20449;-74
2022/11/05 15:58:44;;;;;;;29.93;16.83;;;10.70;99.90;;;;;;4950763;28;20454;-73
2022/11/05 16:01:23;;;;;;;18.93;13.00;;;10.70;99.90;;;;;;4950535;28;20489;-72
2022/11/05 16:03:51;;;;;;;21.83;14.13;;;10.70;99.90;;;;;;4950542;28;21282;-72
2022/11/05 16:06:18;;;;;;;21.90;13.47;;;10.60;99.90;;;;;;4949920;28;20818;-73
2022/11/05 16:08:50;;;;;;;20.37;14.03;;;10.60;99.90;;;;;;4950354;28;20501;-74
2022/11/05 16:11:22;;;;;;;20.23;13.07;;;10.70;99.90;;;;;;4950721;28;20860;-74
2022/11/05 16:13:50;;;;;;;17.40;12.03;;;10.70;99.90;;;;;;4951913;28;20465;-75
2022/11/05 16:16:32;;;;;;;24.00;13.10;;;10.70;99.90;;;;;;4950065;28;20497;-74
2022/11/05 16:18:58;;;;;;;21.00;12.27;;;10.70;99.90;;;;;;4950000;28;20469;-74
2022/11/05 16:21:26;;;;;;;18.67;12.20;;;10.70;99.90;;;;;;4950408;28;20484;-74
2022/11/05 16:23:56;;;;;;;24.70;13.70;;;10.60;99.90;;;;;;4950378;28;20549;-75
2022/11/05 16:26:32;;;;;;;19.33;13.33;;;10.70;99.90;;;;;;4950595;28;20449;-75
2022/11/05 16:29:01;;;;;;;23.80;13.97;;;10.70;99.90;;;;;;4950369;28;20485;-74
2022/11/05 16:31:29;;;;;;;19.97;12.37;;;10.70;99.90;;;;;;4950139;28;20496;-73
2022/11/05 16:33:57;;;;;;;22.43;12.63;;;10.70;99.90;;;;;;4951344;28;20465;-72
2022/11/05 16:36:25;;;;;;;21.37;12.60;;;10.70;99.90;;;;;;4950191;28;20493;-72
2022/11/05 16:38:52;;;;;;;20.20;11.07;;;10.60;99.90;;;;;;4950025;28;21149;-72
2022/11/05 16:41:22;;;;;;;13.17;9.77;;;10.60;99.90;;;;;;4950100;28;20482;-72
2022/11/05 16:43:52;;;;;;;14.70;8.70;;;10.60;99.90;;;;;;4950075;29;20450;-73
2022/11/05 16:46:20;;;;;;;12.27;7.80;;;10.50;99.90;;;;;;4949513;29;20470;-73
2022/11/05 16:48:47;;;;;;;15.83;8.93;;;10.40;99.90;;;;;;4949817;29;20492;-72
2022/11/05 16:51:14;;;;;;;14.23;7.80;;;10.30;99.90;;;;;;4949694;28;20505;-73
2022/11/05 16:53:41;;;;;;;12.40;8.40;;;10.20;99.90;;;;;;4949808;29;20454;-73
2022/11/05 16:56:14;;;;;;;15.13;8.80;;;10.10;99.90;;;;;;4948953;29;20469;-73
2022/11/05 16:58:44;;;;;;;11.80;7.50;;;10.00;99.90;;;;;;4949401;28;21032;-71
2022/11/05 17:01:16;;;;;;;12.47;8.20;;;9.90;99.90;;;;;;4949478;28;20497;-72
2022/11/05 17:03:44;;;;;;;10.43;7.00;;;9.90;99.90;;;;;;4949161;28;20441;-73
2022/11/05 17:06:11;;;;;;;13.60;8.00;;;9.90;99.90;;;;;;4948641;29;20469;-71
2022/11/05 17:08:38;;;;;;;9.50;7.70;;;9.80;99.90;;;;;;4948492;28;20578;-73
2022/11/05 17:11:05;;;;;;;18.83;8.00;;;9.80;99.90;;;;;;4949593;28;20490;-73
2022/11/05 17:13:35;;;;;;;13.53;8.40;;;9.80;99.90;;;;;;4949363;29;20465;-73
2022/11/05 17:16:03;;;;;;;16.10;9.53;;;9.80;99.90;;;;;;4948437;28;20457;-72
2022/11/05 17:18:31;;;;;;;17.50;10.30;;;9.80;99.90;;;;;;4949080;28;20512;-72
2022/11/05 17:20:58;;;;;;;12.90;9.30;;;9.80;99.90;;;;;;4949229;28;20496;-72
2022/11/05 17:23:27;;;;;;;9.73;7.73;;;9.80;99.90;;;;;;4948765;29;20472;-73
2022/11/05 17:25:59;;;;;;;10.80;8.00;;;9.80;99.90;;;;;;4948495;28;20488;-72
2022/11/05 17:28:26;;;;;;;19.43;11.40;;;9.80;99.90;;;;;;4949005;29;20453;-71
2022/11/05 17:30:52;;;;;;;19.63;12.53;;;9.70;99.90;;;;;;4949016;28;20492;-73
2022/11/05 17:33:22;;;;;;;22.77;15.47;;;9.80;99.90;;;;;;4948707;28;20465;-73
2022/11/05 17:35:49;;;;;;;24.23;16.80;;;9.80;99.90;;;;;;4947906;28;20473;-72
2022/11/05 17:38:16;;;;;;;24.70;16.27;;;9.80;99.90;;;;;;4948813;28;20472;-72
2022/11/05 17:40:42;;;;;;;28.67;17.30;;;9.90;99.90;;;;;;4948494;28;20478;-72
2022/11/05 17:43:10;;;;;;;22.83;14.60;;;9.90;99.90;;;;;;4948762;28;20469;-73
2022/11/05 17:45:41;;;;;;;25.47;12.20;;;9.90;99.90;;;;;;4948261;28;20458;-76
2022/11/05 17:48:09;;;;;;;15.90;11.93;;;10.00;99.90;;;;;;4960187;28;20463;-73
2022/11/05 17:50:40;;;;;;;17.60;11.53;;;10.00;99.90;;;;;;4966418;28;20587;-73
2022/11/05 17:53:07;;;;;;;18.30;11.00;;;10.00;99.90;;;;;;4965776;28;20491;-73
2022/11/05 17:55:33;;;;;;;19.40;10.83;;;10.00;99.90;;;;;;4966311;28;20466;-73
2022/11/05 17:58:00;;;;;;;16.47;10.50;;;10.00;99.90;;;;;;4966583;28;20480;-73